METAR Reports

Area Airport Weather Conditions

KBDL - Windsor Locks, Connecticut, USA
Distance from station: NE 45mi, 72km
Updated: 12:51PM EDT, March 19, 2019
Partly cloudy
Partly cloudy
 Wind from NW
Wind: NW 15 mph , 24 km/h
Temperature: 46°F , 8°C
Wind Chill: 40°F , 4°C
Dew Point: 12°F , -11°C
Humidity: 25%
Barometer: 30.38 inHg , 1028.8 hPa
Clouds: Partly cloudy
Visibility: 10 miles , 16 km
Cloud details: Partly cloudy 6500 ft
2019/03/19 16:51 KBDL 191651Z 31013KT 10SM SCT065 08/M11 A3038 RMK AO2 SLP289 T00781106
KDXR - Danbury, Connecticut, USA
Distance from station: SSW 15mi, 24km
Updated: 12:53PM EDT, March 19, 2019
Few Clouds
Few Clouds
 Wind from W
Wind: W 10 mph , 17 km/h
Temperature: 41°F , 5°C
Wind Chill: 35°F , 2°C
Dew Point: 16°F , -9°C
Humidity: 36%
Barometer: 30.40 inHg , 1029.5 hPa
Clouds: Few Clouds
Visibility: 10 miles , 16 km
Cloud details: Few Clouds 6000 ft
2019/03/19 16:53 KDXR 191653Z 27009KT 10SM FEW060 05/M09 A3040 RMK AO2 SLP299 T00501089
 
KOXC - Oxford/Waterbury, Connecticut, USA
Distance from station: ESE 16mi, 26km
Updated: 12:51PM EDT, March 19, 2019
Partly cloudy
Partly cloudy
 Wind from varies
Wind: varies 7 mph , 11 km/h
Temperature: 39°F , 4°C
Wind Chill: 34°F , 1°C
Dew Point: 18°F , -8°C
Humidity: 42%
Barometer: 30.39 inHg , 1029.1 hPa
Clouds: Partly cloudy
Visibility: 10 miles , 16 km
Cloud details: Partly cloudy 5500 ft
2019/03/19 16:51 KOXC 191651Z VRB06KT 10SM SCT055 04/M08 A3039 RMK AO2 SLP311 T00391083
KPOU - Poughkeepsie, New York, USA
Distance from station: W 25mi, 40km
Updated: 12:53PM EDT, March 19, 2019
Overcast
Overcast
 Wind from varies
Wind: varies 3 mph , 6 km/h
Temperature: 43°F , 6°C
Dew Point: 18°F , -8°C
Humidity: 36%
Barometer: 30.39 inHg , 1029.1 hPa
Clouds: Overcast
Visibility: 10 miles , 16 km
Cloud details: Mostly cloudy 6000 ft
Overcast 7500 ft
2019/03/19 16:53 KPOU 191653Z VRB03KT 10SM BKN060 OVC075 06/M08 A3039 RMK AO2 SLP290 T00561078
 
KMMK - Meriden, Connecticut, USA
Distance from station: E 30mi, 48km
Updated: 12:53PM EDT, March 19, 2019
Few Clouds
Few Clouds
 Wind from WNW
Wind: WNW 13 mph , 20 km/h
Temperature: 45°F , 7°C
Wind Chill: 39°F , 4°C
Dew Point: 18°F , -8°C
Humidity: 34%
Barometer: 30.40 inHg , 1029.5 hPa
Clouds: Few Clouds
Visibility: 10 miles , 16 km
Cloud details: Few Clouds 6000 ft
2019/03/19 16:53 KMMK 191653Z AUTO 30011KT 260V320 10SM FEW060 07/M08 A3040 RMK AO2 SLP296 T00721083
KBDR - Bridgeport, Connecticut, USA
Distance from station: SSE 32mi, 51km
Updated: 12:52PM EDT, March 19, 2019
Clear
Clear
 Wind from S
Wind: S 9 mph , 15 km/h
Temperature: 41°F , 5°C
Wind Chill: 35°F , 2°C
Dew Point: 25°F , -4°C
Humidity: 53%
Barometer: 30.42 inHg , 1030.1 hPa
Clouds: Clear
Visibility: 10 miles , 16 km
2019/03/19 16:52 KBDR 191652Z 19008KT 10SM CLR 05/M04 A3042 RMK AO2 SLP301 T00501044
 
KHVN - New Haven/Tweed, Connecticut, USA
Distance from station: SE 35mi, 57km
Updated: 12:53PM EDT, March 19, 2019
Few Clouds
Few Clouds
 Wind from SSW
Wind: SSW 8 mph , 13 km/h
Temperature: 43°F , 6°C
Wind Chill: 38°F , 3°C
Dew Point: 25°F , -4°C
Humidity: 49%
Barometer: 30.42 inHg , 1030.1 hPa
Clouds: Few Clouds
Visibility: 10 miles , 16 km
Cloud details: Few Clouds 6000 ft
2019/03/19 16:53 KHVN 191653Z 20007KT 10SM FEW060 06/M04 A3042 RMK AO2 SLP300 T00561039
KSWF - Newburgh/Stewart, New York, USA
Distance from station: W 35mi, 57km
Updated: 12:45PM EDT, March 19, 2019
Partly cloudy
Partly cloudy
 Wind from WNW
Wind: WNW 14 mph , 22 km/h
Temperature: 43°F , 6°C
Wind Chill: 36°F , 2°C
Dew Point: 19°F , -7°C
Humidity: 39%
Barometer: 30.40 inHg , 1029.5 hPa
Clouds: Partly cloudy
Visibility: 20 miles , 32 km
Cloud details: Partly cloudy 6000 ft
2019/03/19 16:45 KSWF 191645Z 30012KT 20SM SCT060 06/M07 A3040
 
KHPN - White Plains, New York, USA
Distance from station: SSW 38mi, 62km
Updated: 12:56PM EDT, March 19, 2019
Partly cloudy
Partly cloudy
 Wind from NW
Wind: NW 12 mph , 19 km/h, Gust: 16 mph , 26 km/h
Temperature: 43°F , 6°C
Wind Chill: 37°F , 3°C
Dew Point: 16°F , -9°C
Humidity: 34%
Barometer: 30.40 inHg , 1029.5 hPa
Clouds: Partly cloudy
Visibility: 10 miles , 16 km
Cloud details: Partly cloudy 4000 ft
2019/03/19 16:56 KHPN 191656Z 31010G14KT 10SM SCT040 06/M09 A3040 RMK AO2 SLP301 T00611089
KHFD - Hartford/Brainar, Connecticut, USA
Distance from station: ENE 41mi, 65km
Updated: 12:53PM EDT, March 19, 2019
Few Clouds
Few Clouds
 Wind from NNW
Wind: NNW 9 mph , 15 km/h, Gust: 17 mph , 28 km/h
Temperature: 45°F , 7°C
Wind Chill: 40°F , 4°C
Dew Point: 16°F , -9°C
Humidity: 31%
Barometer: 30.40 inHg , 1029.5 hPa
Clouds: Few Clouds
Visibility: 10 miles , 16 km
Cloud details: Few Clouds 7000 ft
2019/03/19 16:53 KHFD 191653Z 34008G15KT 10SM FEW070 07/M09 A3040 RMK AO2 SLP292 T00721089